createdAt,value
2022-12-17T00:01:02.250Z,29.90
2022-12-17T00:04:25.384Z,42.08
2022-12-17T00:07:48.382Z,41.67
2022-12-17T00:11:11.384Z,35.03
2022-12-17T00:14:34.363Z,33.75
2022-12-17T00:17:57.073Z,33.95
2022-12-17T00:21:20.565Z,30.88
2022-12-17T00:24:43.512Z,34.33
2022-12-17T00:28:06.726Z,35.80
2022-12-17T00:31:29.818Z,36.72
2022-12-17T00:34:55.291Z,44.00
2022-12-17T00:38:19.758Z,36.83
2022-12-17T00:41:42.617Z,33.70
2022-12-17T00:45:06.585Z,37.75
2022-12-17T00:48:29.588Z,36.42
2022-12-17T00:51:52.332Z,30.25
2022-12-17T00:55:15.635Z,34.05
2022-12-17T00:58:39.720Z,33.75
2022-12-17T01:02:02.949Z,34.28
2022-12-17T01:05:26.537Z,34.13
2022-12-17T01:08:49.572Z,30.52
2022-12-17T01:12:13.012Z,34.20
2022-12-17T01:15:35.869Z,32.00
2022-12-17T01:18:58.664Z,32.08
2022-12-17T01:22:21.649Z,37.33
2022-12-17T01:25:44.258Z,41.95
2022-12-17T01:29:07.027Z,38.25
2022-12-17T01:32:29.504Z,38.45
2022-12-17T01:35:58.061Z,39.30
2022-12-17T01:39:23.962Z,36.72
2022-12-17T01:42:54.876Z,36.00
2022-12-17T01:46:18.387Z,44.28
2022-12-17T01:49:44.664Z,34.95
2022-12-17T01:53:09.518Z,36.10
2022-12-17T01:56:32.577Z,39.33
2022-12-17T02:00:16.665Z,39.63
2022-12-17T02:03:39.630Z,37.10
2022-12-17T02:07:56.253Z,42.33
2022-12-17T02:11:51.849Z,35.17
2022-12-17T02:15:46.553Z,43.55
2022-12-17T02:19:22.650Z,46.90
2022-12-17T02:23:04.797Z,52.38
2022-12-17T02:26:57.193Z,53.28
2022-12-17T02:30:24.735Z,46.58
2022-12-17T02:33:48.068Z,49.25
2022-12-17T02:37:11.159Z,46.63
2022-12-17T02:40:37.903Z,37.58
2022-12-17T02:44:01.202Z,40.17
2022-12-17T02:47:28.092Z,40.55
2022-12-17T02:50:52.076Z,38.05
2022-12-17T02:54:14.754Z,34.80
2022-12-17T02:57:43.548Z,46.78
2022-12-17T03:01:08.690Z,54.90
2022-12-17T03:04:33.105Z,44.20
2022-12-17T03:07:55.920Z,43.28
2022-12-17T03:11:18.687Z,49.00
2022-12-17T03:14:41.529Z,53.28
2022-12-17T03:18:04.472Z,62.80
2022-12-17T03:21:27.588Z,58.80
2022-12-17T03:24:50.481Z,61.80
2022-12-17T03:28:13.047Z,55.17
2022-12-17T03:31:35.785Z,54.38
2022-12-17T03:34:58.158Z,48.67
2022-12-17T03:38:25.641Z,50.00
2022-12-17T03:41:48.716Z,52.65
2022-12-17T03:45:11.518Z,52.95
2022-12-17T03:48:34.370Z,46.55
2022-12-17T03:51:56.981Z,44.67
2022-12-17T03:55:19.900Z,48.42
2022-12-17T03:58:42.768Z,47.35
2022-12-17T04:02:05.932Z,43.88
2022-12-17T04:05:28.986Z,49.22
2022-12-17T04:08:52.111Z,47.30
2022-12-17T04:12:15.098Z,50.10
2022-12-17T04:15:38.078Z,44.75
2022-12-17T04:19:01.122Z,51.25
2022-12-17T04:22:24.104Z,55.58
2022-12-17T04:25:46.912Z,58.25
2022-12-17T04:29:09.874Z,54.03
2022-12-17T04:32:35.337Z,46.08
2022-12-17T04:35:58.492Z,62.10
2022-12-17T04:39:21.364Z,55.28
2022-12-17T04:42:44.001Z,53.50
2022-12-17T04:46:08.867Z,43.38
2022-12-17T04:49:31.682Z,47.85
2022-12-17T04:52:54.580Z,49.47
2022-12-17T04:56:17.332Z,49.53
2022-12-17T04:59:40.163Z,44.35
2022-12-17T05:03:02.966Z,43.05
2022-12-17T05:06:30.136Z,52.30
2022-12-17T05:09:52.925Z,53.08
2022-12-17T05:13:19.870Z,52.95
2022-12-17T05:16:42.658Z,55.22
2022-12-17T05:20:05.318Z,55.97
2022-12-17T05:23:28.630Z,58.95
2022-12-17T05:26:51.479Z,58.38
2022-12-17T05:30:14.328Z,57.17
2022-12-17T05:33:37.330Z,56.75
2022-12-17T05:37:00.531Z,56.20
2022-12-17T05:40:24.532Z,46.85
2022-12-17T05:43:47.365Z,52.60
2022-12-17T05:47:09.958Z,50.65
2022-12-17T05:50:33.110Z,52.58
2022-12-17T05:53:55.864Z,53.33
2022-12-17T05:57:18.671Z,48.97
2022-12-17T06:00:41.762Z,48.22
2022-12-17T06:04:05.412Z,44.97
2022-12-17T06:07:28.362Z,49.03
2022-12-17T06:10:51.211Z,43.58
2022-12-17T06:14:13.886Z,51.90
2022-12-17T06:17:36.545Z,50.10
2022-12-17T06:21:00.123Z,46.20
2022-12-17T06:24:23.740Z,45.65
2022-12-17T06:27:46.698Z,50.37
2022-12-17T06:31:13.939Z,42.72
2022-12-17T06:34:37.127Z,42.80
2022-12-17T06:38:00.001Z,44.28
2022-12-17T06:41:22.628Z,45.05
2022-12-17T06:44:48.260Z,47.70
2022-12-17T06:48:11.646Z,46.78
2022-12-17T06:51:34.339Z,43.88
2022-12-17T06:54:56.893Z,46.95
2022-12-17T06:58:20.026Z,47.70
2022-12-17T07:01:43.449Z,46.92
2022-12-17T07:05:06.455Z,47.22
2022-12-17T07:08:29.218Z,49.60
2022-12-17T07:11:52.440Z,54.15
2022-12-17T07:15:15.171Z,48.80
2022-12-17T07:18:39.024Z,43.83
2022-12-17T07:22:01.758Z,49.63
2022-12-17T07:25:25.061Z,50.38
2022-12-17T07:28:47.888Z,44.80
2022-12-17T07:32:10.632Z,44.78
2022-12-17T07:35:33.312Z,50.08
2022-12-17T07:38:56.505Z,48.95
2022-12-17T07:42:19.220Z,45.63
2022-12-17T07:45:42.829Z,44.97
2022-12-17T07:49:05.700Z,45.58
2022-12-17T07:52:28.462Z,63.65
2022-12-17T07:55:51.127Z,58.53
2022-12-17T07:59:13.890Z,52.10
2022-12-17T08:02:36.771Z,53.05
2022-12-17T08:05:59.682Z,54.47
2022-12-17T08:09:23.749Z,54.97
2022-12-17T08:12:46.628Z,57.38
2022-12-17T08:16:12.346Z,61.50
2022-12-17T08:19:35.047Z,57.17
2022-12-17T08:22:57.952Z,61.67
2022-12-17T08:26:20.685Z,58.97
2022-12-17T08:29:43.629Z,57.33
2022-12-17T08:33:07.634Z,54.15
2022-12-17T08:36:30.893Z,55.28
2022-12-17T08:39:53.968Z,57.15
2022-12-17T08:43:17.114Z,54.28
2022-12-17T08:46:39.526Z,49.97
2022-12-17T08:50:02.436Z,52.90
2022-12-17T08:53:27.114Z,62.92
2022-12-17T08:56:52.753Z,64.47
2022-12-17T09:00:15.476Z,57.05
2022-12-17T09:03:38.591Z,56.15
2022-12-17T09:07:16.293Z,60.28
2022-12-17T09:10:39.643Z,61.70
2022-12-17T09:14:02.636Z,56.25
2022-12-17T09:17:25.389Z,52.03
2022-12-17T09:20:48.733Z,56.60
2022-12-17T09:24:11.981Z,55.22
2022-12-17T09:27:34.770Z,56.42
2022-12-17T09:31:04.935Z,57.47
2022-12-17T09:34:28.635Z,61.63
2022-12-17T09:37:51.786Z,60.10
2022-12-17T09:41:18.953Z,77.45
2022-12-17T09:44:54.053Z,61.03
2022-12-17T09:48:33.644Z,54.50
2022-12-17T09:51:57.147Z,59.33
2022-12-17T09:55:21.437Z,51.08
2022-12-17T09:58:47.987Z,53.42
2022-12-17T10:02:11.501Z,51.60
2022-12-17T10:05:45.219Z,51.25
2022-12-17T10:09:15.047Z,63.88
2022-12-17T10:12:39.935Z,52.22
2022-12-17T10:16:02.736Z,56.65
2022-12-17T10:19:55.502Z,62.70
2022-12-17T10:23:18.272Z,54.63
2022-12-17T10:26:49.888Z,60.80
2022-12-17T10:30:13.223Z,60.35
2022-12-17T10:33:40.707Z,54.05
2022-12-17T10:37:11.305Z,56.35
2022-12-17T10:41:04.853Z,76.38
2022-12-17T10:44:49.901Z,63.42
2022-12-17T10:51:42.718Z,71.82
2022-12-17T10:55:38.596Z,66.82
2022-12-17T10:59:06.029Z,61.60
2022-12-17T11:02:39.888Z,63.03
2022-12-17T11:06:03.400Z,62.67
2022-12-17T11:09:37.287Z,63.13
2022-12-17T11:13:13.646Z,63.28
2022-12-17T11:16:45.299Z,55.72
2022-12-17T11:20:19.705Z,75.10
2022-12-17T11:23:43.526Z,70.93
2022-12-17T11:27:12.483Z,65.57
2022-12-17T11:30:36.263Z,61.40
2022-12-17T11:34:16.984Z,54.25
2022-12-17T11:37:46.203Z,57.53
2022-12-17T11:41:23.144Z,60.15
2022-12-17T11:45:11.633Z,62.45
2022-12-17T11:48:49.028Z,68.22
2022-12-17T11:52:29.803Z,60.90
2022-12-17T11:56:16.067Z,61.53
2022-12-17T11:59:50.964Z,67.57
2022-12-17T12:03:53.136Z,68.38
2022-12-17T12:08:05.459Z,74.88
2022-12-17T12:11:41.908Z,73.38
2022-12-17T12:15:22.916Z,65.88
2022-12-17T12:19:16.175Z,59.28
2022-12-17T12:23:17.289Z,59.08
2022-12-17T12:26:45.968Z,66.63
2022-12-17T12:30:21.814Z,69.15
2022-12-17T12:34:02.813Z,67.00
2022-12-17T12:37:32.659Z,64.72
2022-12-17T12:41:10.829Z,69.22
2022-12-17T12:45:26.221Z,65.20
2022-12-17T12:48:57.497Z,81.35
2022-12-17T12:52:21.200Z,76.20
2022-12-17T12:56:00.401Z,62.85
2022-12-17T12:59:43.614Z,55.00
2022-12-17T13:03:06.745Z,56.88
2022-12-17T13:06:14.160Z,49.50
2022-12-17T13:09:32.322Z,65.35
2022-12-17T13:12:47.162Z,64.03
2022-12-17T13:15:59.248Z,61.90
2022-12-17T13:19:32.416Z,60.97
2022-12-17T13:22:37.172Z,62.20
2022-12-17T13:25:42.905Z,61.55
2022-12-17T13:29:11.820Z,58.38
2022-12-17T13:32:28.730Z,61.25
2022-12-17T13:36:22.628Z,76.20
2022-12-17T13:40:09.607Z,68.40
2022-12-17T13:43:21.159Z,77.05
2022-12-17T13:46:46.458Z,61.47
2022-12-17T13:50:31.722Z,77.20
2022-12-17T13:53:21.382Z,65.88
2022-12-17T13:56:36.549Z,57.38
2022-12-17T13:59:48.770Z,69.78
2022-12-17T14:02:54.949Z,78.00
2022-12-17T14:05:59.771Z,76.97
2022-12-17T14:09:05.310Z,71.68
2022-12-17T14:12:22.155Z,62.58
2022-12-17T14:15:31.945Z,55.80
2022-12-17T14:18:40.567Z,56.70
2022-12-17T14:21:45.325Z,66.13
2022-12-17T14:24:50.171Z,57.17
2022-12-17T14:28:06.371Z,68.65
2022-12-17T14:31:29.531Z,71.75
2022-12-17T14:34:42.279Z,62.22
2022-12-17T14:37:47.451Z,71.82
2022-12-17T14:40:52.800Z,64.70
2022-12-17T14:44:02.487Z,64.43
2022-12-17T14:47:17.734Z,68.18
2022-12-17T14:50:22.510Z,62.15
2022-12-17T14:53:28.156Z,67.13
2022-12-17T14:56:33.074Z,58.40
2022-12-17T14:59:39.344Z,68.72
2022-12-17T15:02:48.324Z,63.60
2022-12-17T15:06:16.556Z,87.75
2022-12-17T15:09:21.170Z,70.70
2022-12-17T15:12:25.757Z,77.50
2022-12-17T15:15:30.416Z,71.95
2022-12-17T15:18:35.385Z,65.43
2022-12-17T15:21:41.498Z,59.40
2022-12-17T15:24:45.949Z,59.80
2022-12-17T15:27:50.310Z,60.47
2022-12-17T15:30:54.769Z,53.55
2022-12-17T15:33:59.443Z,57.50
2022-12-17T15:37:03.883Z,55.85
2022-12-17T15:40:11.847Z,52.58
2022-12-17T15:43:16.490Z,56.45
2022-12-17T15:46:20.841Z,55.22
2022-12-17T15:49:25.176Z,51.72
2022-12-17T15:52:30.029Z,44.45
2022-12-17T15:55:35.799Z,51.80
2022-12-17T15:58:40.495Z,47.97
2022-12-17T16:01:45.611Z,45.45
2022-12-17T16:04:49.939Z,46.20
2022-12-17T16:07:58.909Z,49.42
2022-12-17T16:11:11.029Z,44.92
2022-12-17T16:14:15.888Z,52.42
2022-12-17T16:17:20.962Z,48.47
2022-12-17T16:20:25.508Z,51.15
2022-12-17T16:23:30.818Z,57.28
2022-12-17T16:26:35.448Z,55.90
2022-12-17T16:29:39.893Z,52.75
2022-12-17T16:32:44.692Z,56.25
2022-12-17T16:35:54.212Z,53.53
2022-12-17T16:38:58.913Z,47.33
2022-12-17T16:42:04.081Z,53.45
2022-12-17T16:45:09.553Z,48.85
2022-12-17T16:48:14.160Z,55.65
2022-12-17T16:51:28.517Z,52.63
2022-12-17T16:54:33.786Z,53.13
2022-12-17T16:57:38.111Z,52.90
2022-12-17T17:00:42.708Z,48.88
2022-12-17T17:03:48.230Z,54.10
2022-12-17T17:06:56.804Z,53.65
2022-12-17T17:10:01.510Z,57.75
2022-12-17T17:13:06.383Z,58.03
2022-12-17T17:16:12.130Z,50.22
2022-12-17T17:19:16.739Z,47.90
2022-12-17T17:22:21.614Z,52.88
2022-12-17T17:25:38.774Z,40.30
2022-12-17T17:28:51.828Z,56.13
2022-12-17T17:32:13.544Z,58.42
2022-12-17T17:35:18.990Z,56.08
2022-12-17T17:38:23.830Z,53.00
2022-12-17T17:41:30.365Z,47.83
2022-12-17T17:44:35.180Z,46.42
2022-12-17T17:47:39.852Z,45.60
2022-12-17T17:50:44.381Z,53.05
2022-12-17T17:53:52.122Z,55.72
2022-12-17T17:56:56.745Z,52.47
2022-12-17T18:00:01.483Z,50.33
2022-12-17T18:03:06.083Z,47.90
2022-12-17T18:06:13.481Z,44.22
2022-12-17T18:09:18.126Z,45.42
2022-12-17T18:12:42.178Z,46.45
2022-12-17T18:15:46.974Z,52.45
2022-12-17T18:19:04.260Z,58.40
2022-12-17T18:22:08.877Z,48.65
2022-12-17T18:25:13.387Z,56.22
2022-12-17T18:28:17.810Z,51.17
2022-12-17T18:31:25.862Z,53.67
2022-12-17T18:34:30.664Z,59.97
2022-12-17T18:37:35.824Z,57.30
2022-12-17T18:40:40.573Z,50.60
2022-12-17T18:43:45.173Z,56.15
2022-12-17T18:46:50.562Z,59.47
2022-12-17T18:49:55.061Z,64.97
2022-12-17T18:52:59.757Z,53.20
2022-12-17T18:56:10.582Z,51.20
2022-12-17T18:59:28.799Z,48.45
2022-12-17T19:02:34.148Z,51.80
2022-12-17T19:05:45.152Z,47.38
2022-12-17T19:08:51.685Z,46.00
2022-12-17T19:11:57.420Z,46.55
2022-12-17T19:15:02.212Z,52.75
2022-12-17T19:18:07.059Z,58.22
2022-12-17T19:21:16.380Z,55.13
2022-12-17T19:24:22.058Z,41.95
2022-12-17T19:27:26.598Z,51.25
2022-12-17T19:30:31.193Z,39.47
2022-12-17T19:33:36.691Z,41.85
2022-12-17T19:36:43.030Z,38.97
2022-12-17T19:39:47.609Z,37.20
2022-12-17T19:42:57.730Z,43.20
2022-12-17T19:46:08.178Z,47.20
2022-12-17T19:49:14.548Z,47.08
2022-12-17T19:52:19.263Z,45.40
2022-12-17T19:55:24.407Z,50.00
2022-12-17T19:58:29.323Z,48.33
2022-12-17T20:01:49.093Z,43.38
2022-12-17T20:04:54.211Z,47.63
2022-12-17T20:07:59.246Z,50.88
2022-12-17T20:11:29.110Z,75.97
2022-12-17T20:14:35.284Z,70.95
2022-12-17T20:17:40.095Z,65.10
2022-12-17T20:20:44.840Z,66.43
2022-12-17T20:23:50.314Z,53.58
2022-12-17T20:26:55.284Z,78.57
2022-12-17T20:30:00.207Z,59.88
2022-12-17T20:33:04.791Z,63.38
2022-12-17T20:36:15.571Z,47.83
2022-12-17T20:39:26.151Z,49.35
2022-12-17T20:42:31.933Z,52.45
2022-12-17T20:45:36.656Z,48.47
2022-12-17T20:48:43.315Z,56.13
2022-12-17T20:51:48.239Z,55.92
2022-12-17T20:54:53.139Z,49.92
2022-12-17T20:57:57.511Z,57.33
2022-12-17T21:01:09.139Z,59.33
2022-12-17T21:04:15.352Z,70.70
2022-12-17T21:07:19.922Z,66.82
2022-12-17T21:10:24.633Z,68.30
2022-12-17T21:13:29.828Z,59.92
2022-12-17T21:16:35.672Z,58.83
2022-12-17T21:19:39.987Z,59.60
2022-12-17T21:22:44.357Z,70.60
2022-12-17T21:26:10.507Z,51.67
2022-12-17T21:29:17.054Z,63.75
2022-12-17T21:32:21.638Z,67.38
2022-12-17T21:35:27.270Z,74.05
2022-12-17T21:38:32.708Z,67.68
2022-12-17T21:41:42.950Z,88.68
2022-12-17T21:44:49.865Z,64.75
2022-12-17T21:47:55.174Z,68.35
2022-12-17T21:51:00.465Z,75.05
2022-12-17T21:54:08.678Z,73.97
2022-12-17T21:57:15.667Z,63.83
2022-12-17T22:00:23.762Z,69.10
2022-12-17T22:03:28.393Z,78.68
2022-12-17T22:06:43.428Z,77.07
2022-12-17T22:10:05.758Z,81.03
2022-12-17T22:16:49.320Z,70.28
2022-12-17T22:19:54.533Z,62.17
2022-12-17T22:22:59.149Z,63.28
2022-12-17T22:26:10.482Z,77.95
2022-12-17T22:29:37.212Z,70.63
2022-12-17T22:33:00.630Z,65.38
2022-12-17T22:38:04.747Z,71.82
2022-12-17T22:43:51.400Z,62.50
2022-12-17T22:44:41.006Z,62.95
2022-12-17T22:46:40.928Z,55.30
2022-12-17T22:49:45.308Z,59.10
2022-12-17T22:52:49.827Z,53.42
2022-12-17T22:55:55.380Z,53.65
2022-12-17T22:59:01.481Z,50.80
2022-12-17T23:02:08.066Z,58.10
2022-12-17T23:05:12.817Z,61.50
2022-12-17T23:08:17.620Z,61.67
2022-12-17T23:11:25.341Z,59.80
2022-12-17T23:14:29.646Z,57.67
2022-12-17T23:17:35.411Z,49.72
2022-12-17T23:20:39.909Z,47.78
2022-12-17T23:23:45.620Z,45.25
2022-12-17T23:26:50.524Z,45.97
2022-12-17T23:29:54.848Z,41.85
2022-12-17T23:32:59.384Z,46.67
2022-12-17T23:36:06.757Z,44.92
2022-12-17T23:39:11.685Z,52.35
2022-12-17T23:42:16.151Z,53.22
2022-12-17T23:45:20.320Z,46.13
2022-12-17T23:48:28.242Z,46.80
2022-12-17T23:51:34.166Z,47.65
2022-12-17T23:54:38.646Z,43.75
2022-12-17T23:57:43.310Z,44.17
